Time;durP1;ratioP1;P1;durP2;ratioP2;P2;SDS_P1;SDS_P2;PMS_P1;PMS_P2;Temp;Humidity;BMP_temperature;BMP_pressure;BME280_temperature;BME280_humidity;BME280_pressure;Samples;Min_cycle;Max_cycle;Signal;HPM_P1;HPM_P2
2023/08/09 00:01:48;;;;;;;16.23;12.95;;;;;;;;;;4993195;28;93516;-77
2023/08/09 00:04:15;;;;;;;15.20;11.98;;;;;;;;;;4993675;28;92543;-78
2023/08/09 00:06:41;;;;;;;16.92;11.93;;;;;;;;;;4995879;28;94796;-76
2023/08/09 00:09:07;;;;;;;13.63;11.82;;;;;;;;;;4992489;28;94827;-77
2023/08/09 00:11:34;;;;;;;13.93;11.18;;;;;;;;;;4996409;28;92554;-77
2023/08/09 00:14:00;;;;;;;13.18;11.05;;;;;;;;;;4989847;28;93472;-77
2023/08/09 00:16:27;;;;;;;16.27;11.65;;;;;;;;;;4993145;28;92538;-77
2023/08/09 00:18:53;;;;;;;14.70;11.98;;;;;;;;;;4992648;28;93254;-77
2023/08/09 00:21:20;;;;;;;18.73;12.70;;;;;;;;;;4990777;28;93532;-76
2023/08/09 00:23:46;;;;;;;20.08;11.85;;;;;;;;;;4989177;28;91828;-76
2023/08/09 00:26:13;;;;;;;18.48;12.95;;;;;;;;;;4991792;28;92553;-77
2023/08/09 00:28:39;;;;;;;14.68;12.68;;;;;;;;;;4986638;28;93419;-77
2023/08/09 00:31:06;;;;;;;19.65;13.40;;;;;;;;;;4988466;28;94776;-77
2023/08/09 00:33:32;;;;;;;19.48;14.18;;;;;;;;;;4992340;28;95658;-77
2023/08/09 00:35:58;;;;;;;21.33;14.85;;;;;;;;;;4988730;28;93058;-77
2023/08/09 00:38:25;;;;;;;21.52;14.60;;;;;;;;;;4987431;28;93189;-78
2023/08/09 00:40:51;;;;;;;18.77;14.10;;;;;;;;;;4990820;28;93743;-77
2023/08/09 00:43:18;;;;;;;18.02;13.30;;;;;;;;;;4987985;28;92442;-77
2023/08/09 00:45:46;;;;;;;17.45;13.55;;;;;;;;;;4990577;28;93253;-74
2023/08/09 00:48:13;;;;;;;23.92;14.52;;;;;;;;;;4989205;28;93449;-73
2023/08/09 00:50:40;;;;;;;21.88;14.30;;;;;;;;;;4998929;28;93264;-73
2023/08/09 00:53:06;;;;;;;22.65;14.60;;;;;;;;;;5005620;28;93202;-73
2023/08/09 00:55:33;;;;;;;22.20;14.10;;;;;;;;;;5003177;28;94923;-73
2023/08/09 00:57:59;;;;;;;22.75;15.73;;;;;;;;;;4994735;28;95608;-74
2023/08/09 01:00:26;;;;;;;20.45;15.52;;;;;;;;;;4995240;28;93714;-73
2023/08/09 01:02:52;;;;;;;23.02;15.52;;;;;;;;;;5001242;28;93278;-74
2023/08/09 01:05:20;;;;;;;22.70;15.05;;;;;;;;;;4993400;28;93374;-73
2023/08/09 01:07:53;;;;;;;21.42;14.50;;;;;;;;;;4996326;28;93415;-73
2023/08/09 01:10:28;;;;;;;21.60;14.55;;;;;;;;;;4992834;28;92462;-73
2023/08/09 01:13:01;;;;;;;18.40;13.43;;;;;;;;;;4989801;28;93164;-73
2023/08/09 01:15:28;;;;;;;20.02;13.80;;;;;;;;;;4994446;28;93497;-73
2023/08/09 01:17:55;;;;;;;23.88;15.55;;;;;;;;;;4990681;28;93202;-73
2023/08/09 01:20:23;;;;;;;21.67;15.45;;;;;;;;;;4988502;28;97023;-73
2023/08/09 01:22:56;;;;;;;27.23;15.43;;;;;;;;;;4988732;28;92509;-72
2023/08/09 01:25:22;;;;;;;24.60;15.60;;;;;;;;;;4992961;28;93182;-72
2023/08/09 01:27:49;;;;;;;21.65;14.63;;;;;;;;;;4997379;28;93810;-74
2023/08/09 01:30:15;;;;;;;23.30;15.05;;;;;;;;;;4992243;28;92498;-73
2023/08/09 01:32:42;;;;;;;22.15;15.00;;;;;;;;;;4992575;28;93392;-72
2023/08/09 01:35:08;;;;;;;25.60;14.98;;;;;;;;;;4990852;28;93474;-72
2023/08/09 01:37:53;;;;;;;26.75;15.35;;;;;;;;;;4994829;28;91665;-72
2023/08/09 01:40:20;;;;;;;24.73;15.10;;;;;;;;;;4999032;28;94580;-72
2023/08/09 01:42:47;;;;;;;22.10;13.88;;;;;;;;;;4988565;28;92665;-72
2023/08/09 01:45:14;;;;;;;23.45;14.88;;;;;;;;;;4999820;28;94967;-72
2023/08/09 01:47:41;;;;;;;20.73;14.50;;;;;;;;;;4995737;28;93437;-72
2023/08/09 01:50:24;;;;;;;19.83;13.57;;;;;;;;;;4999062;28;92577;-73
2023/08/09 01:52:55;;;;;;;21.17;14.65;;;;;;;;;;4998588;28;93317;-74
2023/08/09 01:55:24;;;;;;;23.48;15.20;;;;;;;;;;4998688;28;93617;-72
2023/08/09 01:57:50;;;;;;;22.15;15.00;;;;;;;;;;4995037;28;92537;-76
2023/08/09 02:00:19;;;;;;;24.25;15.43;;;;;;;;;;5003782;28;93540;-78
2023/08/09 02:02:49;;;;;;;24.00;15.73;;;;;;;;;;4998815;28;91994;-78
2023/08/09 02:05:16;;;;;;;54.13;16.05;;;;;;;;;;4997863;28;92560;-78
2023/08/09 02:07:42;;;;;;;49.03;16.42;;;;;;;;;;5004909;28;93401;-77
2023/08/09 02:10:10;;;;;;;60.42;15.90;;;;;;;;;;4997245;28;94854;-78
2023/08/09 02:12:37;;;;;;;30.80;16.15;;;;;;;;;;4999127;28;95424;-74
2023/08/09 02:15:04;;;;;;;134.05;18.73;;;;;;;;;;5000657;28;93375;-74
2023/08/09 02:17:31;;;;;;;59.88;17.48;;;;;;;;;;4997804;28;92638;-74
2023/08/09 02:19:58;;;;;;;69.72;18.00;;;;;;;;;;5002184;28;95469;-74
2023/08/09 02:22:25;;;;;;;68.10;17.25;;;;;;;;;;4992969;28;94240;-74
2023/08/09 02:24:52;;;;;;;54.35;16.13;;;;;;;;;;4994323;28;93183;-74
2023/08/09 02:27:19;;;;;;;40.03;16.52;;;;;;;;;;4997432;28;93965;-74
2023/08/09 02:29:46;;;;;;;70.78;17.13;;;;;;;;;;4996305;28;93590;-74
2023/08/09 02:32:14;;;;;;;108.60;16.65;;;;;;;;;;4996750;28;93157;-76
2023/08/09 02:34:40;;;;;;;116.57;17.65;;;;;;;;;;4992770;28;95825;-75
2023/08/09 02:37:07;;;;;;;90.60;16.77;;;;;;;;;;4998890;28;92623;-79
2023/08/09 02:39:35;;;;;;;116.90;18.40;;;;;;;;;;4996735;28;93280;-77
2023/08/09 02:42:01;;;;;;;137.35;18.25;;;;;;;;;;4999917;28;93599;-80
2023/08/09 02:44:27;;;;;;;191.80;18.35;;;;;;;;;;4996768;28;93207;-81
2023/08/09 02:46:54;;;;;;;105.75;16.65;;;;;;;;;;4999149;28;93404;-80
2023/08/09 02:49:20;;;;;;;211.25;18.35;;;;;;;;;;4996187;28;92975;-80
2023/08/09 02:51:46;;;;;;;122.03;16.02;;;;;;;;;;4997907;28;94313;-80
2023/08/09 02:54:13;;;;;;;134.05;17.13;;;;;;;;;;4996149;28;94096;-75
2023/08/09 02:56:39;;;;;;;174.80;17.15;;;;;;;;;;4993586;28;92554;-74
2023/08/09 02:59:06;;;;;;;176.02;16.63;;;;;;;;;;4989310;28;95149;-74
2023/08/09 03:01:33;;;;;;;160.75;16.25;;;;;;;;;;4993340;28;94386;-78
2023/08/09 03:03:59;;;;;;;121.45;15.93;;;;;;;;;;4998959;28;92499;-76
2023/08/09 03:06:26;;;;;;;103.90;14.85;;;;;;;;;;4988669;28;93777;-73
2023/08/09 03:08:53;;;;;;;121.72;15.10;;;;;;;;;;4998057;28;92651;-73
2023/08/09 03:11:21;;;;;;;96.50;14.82;;;;;;;;;;4995617;28;93614;-73
2023/08/09 03:13:47;;;;;;;52.80;13.82;;;;;;;;;;4995545;28;93328;-73
2023/08/09 03:16:13;;;;;;;57.78;13.52;;;;;;;;;;4995208;28;91702;-73
2023/08/09 03:18:40;;;;;;;36.47;12.95;;;;;;;;;;4995533;28;92776;-73
2023/08/09 03:21:07;;;;;;;68.65;12.90;;;;;;;;;;4987505;28;94793;-73
2023/08/09 03:23:34;;;;;;;65.10;12.77;;;;;;;;;;4990792;28;95394;-73
2023/08/09 03:26:00;;;;;;;39.42;13.32;;;;;;;;;;4996049;28;95375;-73
2023/08/09 03:28:27;;;;;;;42.10;13.38;;;;;;;;;;4992288;28;92560;-73
2023/08/09 03:30:54;;;;;;;55.17;12.85;;;;;;;;;;4988099;28;93494;-73
2023/08/09 03:33:20;;;;;;;55.33;13.82;;;;;;;;;;4996482;28;93482;-73
2023/08/09 03:35:46;;;;;;;46.40;12.43;;;;;;;;;;4991953;28;92581;-73
2023/08/09 03:38:13;;;;;;;32.92;12.75;;;;;;;;;;4989093;28;94360;-73
2023/08/09 03:40:39;;;;;;;42.13;12.88;;;;;;;;;;4995680;28;92722;-74
2023/08/09 03:43:06;;;;;;;39.35;12.77;;;;;;;;;;4995326;28;92505;-73
2023/08/09 03:45:32;;;;;;;65.70;12.77;;;;;;;;;;4986685;28;93186;-73
2023/08/09 03:47:59;;;;;;;54.72;12.25;;;;;;;;;;4990147;28;95866;-73
2023/08/09 03:50:26;;;;;;;115.72;14.55;;;;;;;;;;4990851;28;95587;-73
2023/08/09 03:52:53;;;;;;;60.58;12.45;;;;;;;;;;4988299;28;93488;-72
2023/08/09 03:55:19;;;;;;;61.67;11.85;;;;;;;;;;4986119;28;94846;-73
2023/08/09 03:57:46;;;;;;;94.53;13.80;;;;;;;;;;4992907;28;94266;-73
2023/08/09 04:00:17;;;;;;;75.05;12.52;;;;;;;;;;4990303;28;93737;-73
2023/08/09 04:02:45;;;;;;;78.38;13.32;;;;;;;;;;4991843;28;92537;-74
2023/08/09 04:05:11;;;;;;;57.35;12.45;;;;;;;;;;4993222;28;91924;-74
2023/08/09 04:07:38;;;;;;;82.25;13.07;;;;;;;;;;4992658;28;93457;-74
2023/08/09 04:10:05;;;;;;;122.13;14.65;;;;;;;;;;4993582;28;93326;-74
2023/08/09 04:12:31;;;;;;;26.90;12.07;;;;;;;;;;4982706;28;95806;-74
2023/08/09 04:14:58;;;;;;;67.13;11.93;;;;;;;;;;4990212;28;92650;-76
2023/08/09 04:17:24;;;;;;;40.90;11.88;;;;;;;;;;4990761;28;93292;-77
2023/08/09 04:19:51;;;;;;;41.67;12.85;;;;;;;;;;4986615;28;93771;-78
2023/08/09 04:22:18;;;;;;;28.30;13.15;;;;;;;;;;4992184;28;92471;-78
2023/08/09 04:24:44;;;;;;;84.18;14.25;;;;;;;;;;4990486;28;93201;-78
2023/08/09 04:27:11;;;;;;;41.38;11.75;;;;;;;;;;4990500;28;93740;-78
2023/08/09 04:29:38;;;;;;;51.65;12.70;;;;;;;;;;4990808;28;92123;-77
2023/08/09 04:32:04;;;;;;;86.13;11.93;;;;;;;;;;4999737;28;92480;-78
2023/08/09 04:34:30;;;;;;;38.88;12.38;;;;;;;;;;4989312;28;93360;-76
2023/08/09 04:36:57;;;;;;;96.63;13.93;;;;;;;;;;4989931;28;95076;-77
2023/08/09 04:39:23;;;;;;;55.10;12.73;;;;;;;;;;4990066;28;93442;-75
2023/08/09 04:41:50;;;;;;;93.90;13.50;;;;;;;;;;4990310;28;92432;-75
2023/08/09 04:44:17;;;;;;;83.75;14.73;;;;;;;;;;4990265;28;93342;-75
2023/08/09 04:46:44;;;;;;;40.63;13.73;;;;;;;;;;4999086;28;94417;-78
2023/08/09 04:49:12;;;;;;;66.97;14.18;;;;;;;;;;4994386;28;92819;-78
2023/08/09 04:51:38;;;;;;;67.75;14.23;;;;;;;;;;4991416;28;95437;-78
2023/08/09 04:54:05;;;;;;;48.85;12.95;;;;;;;;;;4998401;28;93746;-78
2023/08/09 04:56:31;;;;;;;56.70;13.88;;;;;;;;;;4989362;28;93213;-78
2023/08/09 04:58:58;;;;;;;43.58;13.90;;;;;;;;;;4992394;28;94418;-78
2023/08/09 05:01:24;;;;;;;96.57;15.50;;;;;;;;;;4987033;28;95581;-78
2023/08/09 05:03:50;;;;;;;74.97;15.93;;;;;;;;;;4992307;28;95584;-77
2023/08/09 05:06:17;;;;;;;86.18;16.67;;;;;;;;;;4991182;28;94380;-77
2023/08/09 05:08:44;;;;;;;62.28;16.48;;;;;;;;;;4990108;28;92777;-79
2023/08/09 05:11:11;;;;;;;68.05;16.25;;;;;;;;;;4991430;28;93254;-81
2023/08/09 05:13:37;;;;;;;109.68;17.10;;;;;;;;;;4989808;28;94333;-81
2023/08/09 05:16:03;;;;;;;52.00;15.82;;;;;;;;;;4989271;28;93230;-77
2023/08/09 05:18:30;;;;;;;30.25;14.95;;;;;;;;;;4990937;28;93238;-78
2023/08/09 05:20:58;;;;;;;50.03;17.40;;;;;;;;;;4989968;28;92430;-77
2023/08/09 05:23:24;;;;;;;60.33;16.25;;;;;;;;;;4989414;28;93591;-76
2023/08/09 05:25:50;;;;;;;31.35;16.48;;;;;;;;;;4986323;28;95818;-76
2023/08/09 05:28:17;;;;;;;62.10;16.38;;;;;;;;;;4984920;28;92779;-73
2023/08/09 05:30:43;;;;;;;50.47;17.15;;;;;;;;;;4995790;28;93231;-72
2023/08/09 05:33:11;;;;;;;56.78;18.55;;;;;;;;;;4991299;28;94169;-76
2023/08/09 05:35:37;;;;;;;33.70;15.95;;;;;;;;;;4998126;28;92871;-74
2023/08/09 05:38:03;;;;;;;39.42;18.23;;;;;;;;;;4988646;28;93461;-74
2023/08/09 05:40:30;;;;;;;53.83;17.05;;;;;;;;;;4990570;28;92582;-74
2023/08/09 05:42:56;;;;;;;33.00;17.33;;;;;;;;;;4992735;28;93547;-74
2023/08/09 05:45:22;;;;;;;34.00;17.13;;;;;;;;;;4996440;28;95864;-74
2023/08/09 05:47:49;;;;;;;35.17;17.30;;;;;;;;;;4988855;28;94347;-74
2023/08/09 05:50:15;;;;;;;39.38;17.10;;;;;;;;;;4992645;28;95230;-73
2023/08/09 05:52:42;;;;;;;27.30;15.93;;;;;;;;;;4987947;28;93303;-74
2023/08/09 05:55:09;;;;;;;26.08;16.02;;;;;;;;;;4991062;28;92538;-74
2023/08/09 05:57:36;;;;;;;24.70;15.55;;;;;;;;;;5000333;28;93188;-73
2023/08/09 06:00:04;;;;;;;37.60;16.88;;;;;;;;;;4990194;28;92432;-73
2023/08/09 06:02:33;;;;;;;23.50;15.00;;;;;;;;;;4985450;28;92929;-73
2023/08/09 06:05:00;;;;;;;22.38;14.27;;;;;;;;;;4990901;28;93515;-74
2023/08/09 06:07:27;;;;;;;26.58;14.07;;;;;;;;;;4991806;28;92005;-74
2023/08/09 06:09:55;;;;;;;21.45;14.48;;;;;;;;;;4988898;28;92893;-73
2023/08/09 06:12:38;;;;;;;24.10;13.93;;;;;;;;;;4993965;28;92659;-73
2023/08/09 06:15:05;;;;;;;26.83;14.63;;;;;;;;;;4992863;28;96158;-73
2023/08/09 06:17:32;;;;;;;24.08;15.40;;;;;;;;;;4992772;28;94713;-73
2023/08/09 06:19:59;;;;;;;22.20;14.90;;;;;;;;;;4989654;28;93535;-74
2023/08/09 06:22:25;;;;;;;25.45;15.70;;;;;;;;;;4989473;28;93010;-74
2023/08/09 06:24:52;;;;;;;22.63;14.48;;;;;;;;;;4989204;28;94348;-74
2023/08/09 06:27:18;;;;;;;22.52;13.90;;;;;;;;;;4984981;28;92475;-74
2023/08/09 06:29:44;;;;;;;24.85;14.98;;;;;;;;;;4985616;28;94314;-75
2023/08/09 06:32:11;;;;;;;28.67;15.20;;;;;;;;;;5003182;28;94638;-74
2023/08/09 06:34:37;;;;;;;23.05;13.82;;;;;;;;;;4991372;28;92645;-74
2023/08/09 06:37:04;;;;;;;24.92;15.18;;;;;;;;;;4992206;28;92533;-74
2023/08/09 06:39:30;;;;;;;22.67;14.35;;;;;;;;;;4992120;28;96076;-77
2023/08/09 06:41:57;;;;;;;18.85;12.85;;;;;;;;;;4995933;28;92531;-77
2023/08/09 06:44:23;;;;;;;27.15;15.27;;;;;;;;;;4990518;28;93671;-77
2023/08/09 06:46:50;;;;;;;21.05;14.43;;;;;;;;;;4991969;28;92526;-77
2023/08/09 06:49:16;;;;;;;22.88;14.13;;;;;;;;;;4989286;28;93198;-77
2023/08/09 06:51:42;;;;;;;24.27;14.00;;;;;;;;;;4989461;28;93469;-78
2023/08/09 06:54:09;;;;;;;25.30;14.93;;;;;;;;;;4992638;28;92622;-77
2023/08/09 06:56:36;;;;;;;20.85;14.48;;;;;;;;;;4991033;28;94161;-70
2023/08/09 06:59:02;;;;;;;21.80;14.30;;;;;;;;;;4992792;28;93699;-71
2023/08/09 07:01:29;;;;;;;21.65;14.02;;;;;;;;;;4989110;28;92562;-71
2023/08/09 07:03:56;;;;;;;20.73;13.52;;;;;;;;;;4994283;28;95091;-71
2023/08/09 07:06:23;;;;;;;21.27;13.35;;;;;;;;;;4992678;28;92896;-70
2023/08/09 07:08:53;;;;;;;23.77;14.43;;;;;;;;;;4989635;28;94306;-70
2023/08/09 07:11:20;;;;;;;23.33;15.13;;;;;;;;;;4991731;28;93712;-69
2023/08/09 07:13:47;;;;;;;24.50;15.00;;;;;;;;;;4992462;28;93302;-70
2023/08/09 07:16:13;;;;;;;22.27;14.88;;;;;;;;;;4978968;28;92556;-70
2023/08/09 07:18:39;;;;;;;23.45;15.57;;;;;;;;;;4989597;28;94488;-70
2023/08/09 07:21:06;;;;;;;20.10;14.10;;;;;;;;;;4991783;28;92387;-70
2023/08/09 07:23:33;;;;;;;26.48;15.00;;;;;;;;;;4998385;28;92575;-70
2023/08/09 07:26:19;;;;;;;21.77;14.13;;;;;;;;;;4993295;28;92462;-70
2023/08/09 07:28:46;;;;;;;23.00;14.95;;;;;;;;;;4991098;28;95060;-70
2023/08/09 07:31:16;;;;;;;26.83;16.00;;;;;;;;;;4989772;28;94416;-69
2023/08/09 07:33:42;;;;;;;25.40;15.90;;;;;;;;;;4992443;28;92543;-70
2023/08/09 07:36:08;;;;;;;22.25;13.43;;;;;;;;;;4985209;28;93196;-70
2023/08/09 07:38:36;;;;;;;24.52;14.55;;;;;;;;;;4996977;28;94481;-70
2023/08/09 07:41:03;;;;;;;23.50;13.77;;;;;;;;;;4991105;28;92614;-71
2023/08/09 07:43:30;;;;;;;21.70;13.82;;;;;;;;;;4996704;28;93620;-70
2023/08/09 07:45:56;;;;;;;24.23;12.52;;;;;;;;;;5001068;28;94945;-73
2023/08/09 07:48:23;;;;;;;20.15;11.93;;;;;;;;;;4992723;28;92553;-69
2023/08/09 07:50:49;;;;;;;17.13;11.68;;;;;;;;;;4997203;28;94393;-69
2023/08/09 07:53:16;;;;;;;17.67;11.90;;;;;;;;;;4987883;28;95035;-69
2023/08/09 07:55:42;;;;;;;17.85;11.98;;;;;;;;;;4992383;28;96617;-69
2023/08/09 07:58:09;;;;;;;16.45;11.20;;;;;;;;;;4992179;28;93427;-69
2023/08/09 08:00:35;;;;;;;14.32;9.80;;;;;;;;;;4991216;28;92562;-69
2023/08/09 08:03:22;;;;;;;15.98;9.48;;;;;;;;;;4991269;28;93474;-70
2023/08/09 08:05:48;;;;;;;13.65;9.82;;;;;;;;;;4990966;28;95375;-69
2023/08/09 08:08:14;;;;;;;13.38;9.00;;;;;;;;;;4988575;28;92582;-69
2023/08/09 08:10:41;;;;;;;11.88;8.18;;;;;;;;;;4989079;28;92730;-70
2023/08/09 08:13:08;;;;;;;12.05;8.07;;;;;;;;;;4993005;28;92668;-69
2023/08/09 08:15:36;;;;;;;13.88;7.35;;;;;;;;;;4994437;28;93033;-69
2023/08/09 08:18:04;;;;;;;8.20;6.22;;;;;;;;;;4991378;28;95749;-69
2023/08/09 08:20:30;;;;;;;7.55;5.53;;;;;;;;;;4994207;28;92719;-69
2023/08/09 08:22:57;;;;;;;10.00;6.68;;;;;;;;;;4993357;28;93194;-69
2023/08/09 08:25:23;;;;;;;10.10;6.30;;;;;;;;;;4991428;28;94423;-70
2023/08/09 08:27:50;;;;;;;14.57;5.85;;;;;;;;;;4997490;28;92539;-69
2023/08/09 08:30:17;;;;;;;11.38;5.07;;;;;;;;;;4996083;28;93204;-70
2023/08/09 08:32:44;;;;;;;11.23;5.47;;;;;;;;;;4996980;28;92371;-70
2023/08/09 08:35:13;;;;;;;9.40;5.80;;;;;;;;;;4998740;28;93396;-70
2023/08/09 08:37:40;;;;;;;8.07;5.35;;;;;;;;;;4994380;28;92581;-69
2023/08/09 08:40:08;;;;;;;8.07;5.03;;;;;;;;;;4993812;28;92660;-70
2023/08/09 08:42:35;;;;;;;8.05;4.95;;;;;;;;;;4996957;28;94721;-69
2023/08/09 08:45:09;;;;;;;8.32;4.68;;;;;;;;;;4996032;28;93416;-69
2023/08/09 08:47:37;;;;;;;15.10;5.18;;;;;;;;;;4993079;28;92578;-69
2023/08/09 08:50:04;;;;;;;7.50;4.97;;;;;;;;;;4993064;28;93236;-69
2023/08/09 08:52:32;;;;;;;10.40;4.85;;;;;;;;;;4995301;28;94494;-69
2023/08/09 08:54:59;;;;;;;7.88;4.75;;;;;;;;;;5000752;28;94219;-69
2023/08/09 08:57:26;;;;;;;11.77;5.05;;;;;;;;;;4992712;28;93779;-69
2023/08/09 08:59:52;;;;;;;7.65;4.30;;;;;;;;;;4993929;28;91578;-70
2023/08/09 09:02:19;;;;;;;9.30;5.20;;;;;;;;;;4996922;28;92344;-70
2023/08/09 09:04:46;;;;;;;7.38;4.07;;;;;;;;;;4992681;28;94339;-71
2023/08/09 09:07:13;;;;;;;6.00;3.10;;;;;;;;;;4990741;28;94836;-71
2023/08/09 09:09:58;;;;;;;11.68;3.38;;;;;;;;;;4992900;28;94313;-71
2023/08/09 09:12:24;;;;;;;5.07;2.90;;;;;;;;;;4989098;28;93424;-70
2023/08/09 09:14:51;;;;;;;4.00;2.92;;;;;;;;;;4994959;28;94286;-71
2023/08/09 09:17:21;;;;;;;4.38;2.53;;;;;;;;;;4992339;28;93504;-71
2023/08/09 09:19:48;;;;;;;3.70;2.15;;;;;;;;;;4992034;28;92551;-71
2023/08/09 09:22:27;;;;;;;4.13;2.15;;;;;;;;;;4997257;28;94158;-71
2023/08/09 09:25:01;;;;;;;5.30;2.20;;;;;;;;;;4992440;28;92795;-70
2023/08/09 09:27:27;;;;;;;5.18;2.53;;;;;;;;;;4989262;28;92446;-71
2023/08/09 09:29:53;;;;;;;7.75;2.95;;;;;;;;;;4987877;28;92767;-70
2023/08/09 09:32:20;;;;;;;2.15;1.92;;;;;;;;;;4991026;28;95943;-71
2023/08/09 09:34:48;;;;;;;6.13;2.30;;;;;;;;;;4995832;28;92489;-71
2023/08/09 09:37:17;;;;;;;3.50;2.65;;;;;;;;;;4991564;28;93346;-71
2023/08/09 09:39:47;;;;;;;5.75;3.00;;;;;;;;;;4993797;28;92505;-71
2023/08/09 09:42:13;;;;;;;11.88;3.60;;;;;;;;;;4995184;28;93356;-71
2023/08/09 09:44:41;;;;;;;7.00;2.80;;;;;;;;;;4992131;28;93528;-71
2023/08/09 09:47:08;;;;;;;8.65;3.25;;;;;;;;;;4993149;28;92602;-71
2023/08/09 09:49:35;;;;;;;8.40;3.08;;;;;;;;;;4992825;28;93104;-71
2023/08/09 09:52:03;;;;;;;6.20;3.53;;;;;;;;;;4991858;28;93485;-71
2023/08/09 09:54:31;;;;;;;5.13;3.30;;;;;;;;;;4992379;28;92391;-71
2023/08/09 09:56:59;;;;;;;12.57;3.55;;;;;;;;;;4981981;28;94958;-71
2023/08/09 09:59:26;;;;;;;5.88;3.20;;;;;;;;;;4981108;28;92809;-71
2023/08/09 10:01:53;;;;;;;4.40;2.70;;;;;;;;;;4987324;28;93317;-71
2023/08/09 10:04:20;;;;;;;12.43;3.17;;;;;;;;;;4990916;28;93422;-71
2023/08/09 10:06:47;;;;;;;4.28;2.65;;;;;;;;;;4993744;28;92485;-71
2023/08/09 10:09:15;;;;;;;7.18;2.80;;;;;;;;;;4995413;28;94113;-72
2023/08/09 10:11:44;;;;;;;3.90;2.53;;;;;;;;;;4995495;28;94635;-71
2023/08/09 10:14:12;;;;;;;6.22;2.72;;;;;;;;;;4995270;28;91831;-72
2023/08/09 10:16:38;;;;;;;6.63;2.17;;;;;;;;;;4995446;28;92609;-71
2023/08/09 10:19:08;;;;;;;8.45;2.80;;;;;;;;;;4998194;28;94024;-72
2023/08/09 10:21:34;;;;;;;6.47;2.70;;;;;;;;;;4994256;28;95643;-72
2023/08/09 10:24:13;;;;;;;7.60;2.40;;;;;;;;;;4990799;28;93418;-71
2023/08/09 10:26:40;;;;;;;4.60;2.60;;;;;;;;;;4990823;28;95241;-71
2023/08/09 10:29:08;;;;;;;4.22;2.28;;;;;;;;;;4993032;28;93296;-72
2023/08/09 10:31:49;;;;;;;6.47;2.70;;;;;;;;;;4995119;28;93842;-72
2023/08/09 10:34:16;;;;;;;6.95;3.00;;;;;;;;;;4991956;28;92551;-71
2023/08/09 10:36:47;;;;;;;4.38;2.80;;;;;;;;;;4992220;28;93108;-72
2023/08/09 10:39:15;;;;;;;5.80;2.47;;;;;;;;;;4998247;28;92677;-71
2023/08/09 10:41:54;;;;;;;2.97;2.10;;;;;;;;;;4997770;28;92989;-72
2023/08/09 10:44:54;;;;;;;8.90;2.70;;;;;;;;;;4990598;28;93606;-71
2023/08/09 10:47:24;;;;;;;3.85;2.00;;;;;;;;;;4977816;28;95059;-72
2023/08/09 10:49:51;;;;;;;3.85;2.13;;;;;;;;;;4992777;28;95535;-72
2023/08/09 10:52:18;;;;;;;4.78;2.33;;;;;;;;;;4993060;28;94334;-71
2023/08/09 10:55:08;;;;;;;4.57;1.98;;;;;;;;;;4991964;28;93066;-72
2023/08/09 10:57:41;;;;;;;3.83;2.00;;;;;;;;;;4987538;28;93112;-72
2023/08/09 11:00:12;;;;;;;3.53;1.88;;;;;;;;;;4982478;28;93395;-72
2023/08/09 11:02:48;;;;;;;8.45;2.90;;;;;;;;;;4991649;28;95810;-72
2023/08/09 11:05:15;;;;;;;5.50;2.58;;;;;;;;;;4994403;28;93128;-72
2023/08/09 11:07:45;;;;;;;7.43;1.80;;;;;;;;;;4994519;28;92506;-72
2023/08/09 11:10:15;;;;;;;7.88;2.25;;;;;;;;;;4990531;28;94053;-72
2023/08/09 11:12:43;;;;;;;2.85;1.63;;;;;;;;;;4988152;28;95779;-72
2023/08/09 11:15:10;;;;;;;6.80;1.83;;;;;;;;;;4989709;28;92864;-72
2023/08/09 11:17:46;;;;;;;2.85;1.40;;;;;;;;;;4990111;28;94366;-72
2023/08/09 11:20:13;;;;;;;5.97;1.52;;;;;;;;;;4991315;28;93495;-71
2023/08/09 11:22:58;;;;;;;3.78;1.45;;;;;;;;;;4998119;28;92615;-71
2023/08/09 11:25:26;;;;;;;2.83;1.20;;;;;;;;;;4982373;28;94881;-71
2023/08/09 11:27:53;;;;;;;1.60;1.30;;;;;;;;;;4989417;28;92516;-71
2023/08/09 11:30:20;;;;;;;2.85;1.40;;;;;;;;;;4993477;28;94099;-71
2023/08/09 11:32:56;;;;;;;7.93;1.38;;;;;;;;;;4994295;28;93390;-71
2023/08/09 11:35:28;;;;;;;4.32;1.17;;;;;;;;;;4987991;28;92767;-71
2023/08/09 11:37:54;;;;;;;2.50;1.08;;;;;;;;;;4985027;28;95460;-71
2023/08/09 11:40:22;;;;;;;5.57;1.80;;;;;;;;;;4993386;28;94924;-71
2023/08/09 11:42:54;;;;;;;7.13;1.30;;;;;;;;;;4988662;28;94542;-71
2023/08/09 11:45:20;;;;;;;9.55;1.50;;;;;;;;;;4987491;28;94282;-71
2023/08/09 11:47:48;;;;;;;5.13;1.10;;;;;;;;;;5000508;28;93363;-71
2023/08/09 11:50:24;;;;;;;2.35;1.17;;;;;;;;;;4994158;28;93094;-71
2023/08/09 11:52:52;;;;;;;2.70;1.10;;;;;;;;;;4991483;28;94579;-71
2023/08/09 11:55:18;;;;;;;5.57;1.17;;;;;;;;;;4996610;28;91670;-71
2023/08/09 11:57:44;;;;;;;4.45;1.20;;;;;;;;;;4994157;28;93421;-71
2023/08/09 12:00:12;;;;;;;6.53;1.65;;;;;;;;;;4993969;28;92718;-71
2023/08/09 12:02:42;;;;;;;4.50;1.55;;;;;;;;;;4990019;28;94844;-71
2023/08/09 12:05:11;;;;;;;4.30;1.10;;;;;;;;;;4986139;28;95492;-71
2023/08/09 12:07:37;;;;;;;5.57;1.25;;;;;;;;;;4990347;28;93764;-75
2023/08/09 12:10:08;;;;;;;2.95;1.48;;;;;;;;;;4992047;28;92812;-75
2023/08/09 12:12:38;;;;;;;2.33;1.20;;;;;;;;;;4991618;28;94518;-76
2023/08/09 12:15:05;;;;;;;5.90;1.45;;;;;;;;;;4990921;28;94319;-74
2023/08/09 12:17:32;;;;;;;3.55;1.33;;;;;;;;;;5003777;28;94153;-74
2023/08/09 12:20:04;;;;;;;1.88;1.00;;;;;;;;;;4994231;28;92672;-74
2023/08/09 12:22:31;;;;;;;7.00;1.27;;;;;;;;;;4985329;28;92555;-74
2023/08/09 12:24:58;;;;;;;8.27;1.42;;;;;;;;;;4988127;28;92939;-74
2023/08/09 12:27:25;;;;;;;15.00;1.48;;;;;;;;;;4987752;28;95801;-74
2023/08/09 12:29:52;;;;;;;4.43;1.30;;;;;;;;;;4988717;28;92604;-74
2023/08/09 12:32:19;;;;;;;5.75;1.05;;;;;;;;;;4996993;28;94462;-74
2023/08/09 12:34:48;;;;;;;2.17;0.95;;;;;;;;;;4989521;28;92438;-74
2023/08/09 12:37:14;;;;;;;2.00;1.00;;;;;;;;;;4988301;28;93337;-75
2023/08/09 12:39:40;;;;;;;5.32;1.27;;;;;;;;;;4982928;28;93478;-74
2023/08/09 12:42:07;;;;;;;2.72;1.10;;;;;;;;;;4993974;28;93903;-75
2023/08/09 12:44:34;;;;;;;2.20;1.08;;;;;;;;;;4993244;28;92097;-75
2023/08/09 12:47:00;;;;;;;8.63;1.08;;;;;;;;;;4983087;28;93378;-73
2023/08/09 12:49:27;;;;;;;5.85;1.20;;;;;;;;;;4987279;28;93741;-73
2023/08/09 12:51:53;;;;;;;3.20;0.98;;;;;;;;;;4989741;28;94924;-74
2023/08/09 12:54:20;;;;;;;3.08;0.88;;;;;;;;;;4994332;28;93495;-76
2023/08/09 12:56:46;;;;;;;4.65;1.08;;;;;;;;;;4992438;28;93449;-75
2023/08/09 12:59:13;;;;;;;8.05;1.17;;;;;;;;;;4994945;28;92487;-74
2023/08/09 13:01:39;;;;;;;6.18;0.80;;;;;;;;;;4992182;28;92749;-74
2023/08/09 13:04:06;;;;;;;6.75;1.42;;;;;;;;;;4991338;28;93020;-73
2023/08/09 13:06:32;;;;;;;5.55;1.30;;;;;;;;;;4990445;28;92527;-74
2023/08/09 13:08:59;;;;;;;6.53;1.33;;;;;;;;;;4989981;28;91926;-74
2023/08/09 13:11:26;;;;;;;4.18;1.10;;;;;;;;;;4990934;28;92643;-74
2023/08/09 13:13:53;;;;;;;6.88;1.10;;;;;;;;;;4984669;28;93304;-74
2023/08/09 13:16:19;;;;;;;2.83;1.02;;;;;;;;;;4990645;28;94933;-74
2023/08/09 13:18:46;;;;;;;3.53;1.10;;;;;;;;;;4991194;28;93461;-74
2023/08/09 13:21:13;;;;;;;3.55;1.08;;;;;;;;;;4990748;28;92568;-74
2023/08/09 13:23:42;;;;;;;5.32;1.17;;;;;;;;;;4987895;28;93073;-74
2023/08/09 13:26:11;;;;;;;3.67;0.98;;;;;;;;;;4994737;28;93730;-74
2023/08/09 13:28:39;;;;;;;3.63;1.23;;;;;;;;;;4984868;28;94029;-74
2023/08/09 13:31:07;;;;;;;4.97;1.05;;;;;;;;;;4985823;28;93438;-74
2023/08/09 13:33:33;;;;;;;4.78;1.38;;;;;;;;;;4986794;28;93004;-74
2023/08/09 13:36:00;;;;;;;3.63;1.38;;;;;;;;;;4995721;28;92566;-74
2023/08/09 13:38:28;;;;;;;11.45;1.23;;;;;;;;;;4991864;28;93214;-74
2023/08/09 13:40:56;;;;;;;3.30;1.00;;;;;;;;;;4983933;28;95230;-75
2023/08/09 13:43:23;;;;;;;7.55;1.05;;;;;;;;;;4987465;28;95489;-75
2023/08/09 13:45:49;;;;;;;6.22;1.17;;;;;;;;;;4991607;28;93329;-76
2023/08/09 13:48:16;;;;;;;7.43;1.48;;;;;;;;;;4988858;28;93552;-75
2023/08/09 13:50:46;;;;;;;3.63;1.00;;;;;;;;;;4991811;28;92983;-75
2023/08/09 13:53:12;;;;;;;5.28;1.35;;;;;;;;;;4990954;28;93006;-75
2023/08/09 13:55:40;;;;;;;3.85;1.10;;;;;;;;;;4985757;28;92471;-75
2023/08/09 13:58:06;;;;;;;5.55;1.20;;;;;;;;;;4993258;28;93324;-75
2023/08/09 14:00:32;;;;;;;5.30;1.27;;;;;;;;;;4991935;28;92627;-75
2023/08/09 14:02:59;;;;;;;7.13;1.20;;;;;;;;;;4989888;28;93155;-75
2023/08/09 14:05:25;;;;;;;4.88;1.38;;;;;;;;;;4994114;28;95205;-75
2023/08/09 14:07:52;;;;;;;3.45;1.33;;;;;;;;;;4990268;28;92596;-75
2023/08/09 14:10:18;;;;;;;5.07;1.23;;;;;;;;;;4982904;28;93124;-76
2023/08/09 14:12:45;;;;;;;6.30;1.25;;;;;;;;;;4990139;28;93393;-76
2023/08/09 14:15:11;;;;;;;7.07;1.20;;;;;;;;;;4990530;28;92584;-76
2023/08/09 14:17:37;;;;;;;2.28;0.90;;;;;;;;;;4990220;28;92774;-76
2023/08/09 14:20:05;;;;;;;5.32;1.17;;;;;;;;;;4991970;28;93598;-76
2023/08/09 14:22:32;;;;;;;4.22;1.10;;;;;;;;;;4989905;28;93284;-75
2023/08/09 14:24:59;;;;;;;4.57;1.02;;;;;;;;;;4992056;28;92982;-75
2023/08/09 14:27:25;;;;;;;4.50;1.02;;;;;;;;;;4988167;28;94400;-75
2023/08/09 14:29:51;;;;;;;10.27;0.90;;;;;;;;;;4989766;28;94738;-76